Time;durP1;ratioP1;P1;durP2;ratioP2;P2;SDS_P1;SDS_P2;PMS_P1;PMS_P2;Temp;Humidity;BMP_temperature;BMP_pressure;BME280_temperature;BME280_humidity;BME280_pressure;Samples;Min_cycle;Max_cycle;Signal;HPM_P1;HPM_P2
2021/03/23 00:00:22;;;;;;;;;41.25;39.00;;;;;5.71;61.77;100354.03;4849574;29;11734;-74
2021/03/23 00:03:01;;;;;;;;;39.25;37.50;;;;;5.74;62.08;100356.97;4878847;29;11871;-75
2021/03/23 00:05:58;;;;;;;;;26.75;26.25;;;;;5.84;61.92;100355.97;4880747;29;11739;-75
2021/03/23 00:08:59;;;;;;;;;37.00;35.75;;;;;5.64;62.96;100362.69;4869124;29;11707;-75
2021/03/23 00:11:56;;;;;;;;;28.25;28.25;;;;;5.69;63.34;100370.00;4880926;29;11698;-75
2021/03/23 00:14:23;;;;;;;;;33.00;32.75;;;;;5.58;64.21;100366.66;4884310;29;11766;-74
2021/03/23 00:17:19;;;;;;;;;31.25;29.25;;;;;5.48;65.16;100361.38;4880552;29;11781;-74
2021/03/23 00:20:19;;;;;;;;;36.50;34.25;;;;;5.30;65.45;100365.84;4880398;29;11787;-74
2021/03/23 00:22:47;;;;;;;;;25.75;25.75;;;;;5.13;66.71;100366.41;4865064;29;11725;-73
2021/03/23 00:25:42;;;;;;;;;29.25;29.25;;;;;4.98;68.21;100367.53;4880619;29;11715;-75
2021/03/23 00:28:39;;;;;;;;;31.25;31.25;;;;;5.10;67.97;100366.22;4881937;29;11848;-75
2021/03/23 00:31:34;;;;;;;;;27.25;26.50;;;;;5.11;68.64;100357.69;4869119;29;11773;-74
2021/03/23 00:34:19;;;;;;;;;30.00;30.00;;;;;5.05;69.12;100369.03;4881696;29;11946;-75
2021/03/23 00:37:15;;;;;;;;;36.25;36.25;;;;;4.85;70.52;100367.47;4849070;29;11732;-75
2021/03/23 00:40:18;;;;;;;;;31.75;31.75;;;;;4.94;70.38;100362.94;4862758;29;11728;-74
2021/03/23 00:43:14;;;;;;;;;38.25;37.75;;;;;4.72;72.05;100358.91;4861791;29;12602;-75
2021/03/23 00:46:13;;;;;;;;;30.00;29.00;;;;;4.75;71.92;100365.72;4861663;29;11731;-75
2021/03/23 00:49:09;;;;;;;;;31.75;31.75;;;;;4.72;72.83;100358.91;4861325;29;11758;-75
2021/03/23 00:51:38;;;;;;;;;39.75;36.25;;;;;4.65;72.83;100360.41;4878847;29;11764;-75
2021/03/23 00:54:33;;;;;;;;;40.75;37.75;;;;;4.78;72.93;100354.16;4861105;29;12572;-75
2021/03/23 00:57:29;;;;;;;;;36.25;35.00;;;;;4.71;73.20;100353.75;4851013;29;12512;-75
2021/03/23 01:00:27;;;;;;;;;38.75;38.75;;;;;4.59;74.03;100340.50;4860964;29;11747;-75
2021/03/23 01:02:56;;;;;;;;;38.00;38.00;;;;;4.63;74.31;100349.75;4864589;29;11752;-74
2021/03/23 01:05:51;;;;;;;;;41.75;40.00;;;;;4.58;74.71;100347.09;4860168;29;11727;-74
2021/03/23 01:08:47;;;;;;;;;39.75;39.25;;;;;4.55;75.40;100341.41;4879614;29;11753;-74
2021/03/23 01:11:43;;;;;;;;;40.00;38.25;;;;;4.49;75.52;100332.47;4879434;29;11749;-75
2021/03/23 01:14:39;;;;;;;;;40.00;39.50;;;;;4.60;75.04;100335.84;4879798;29;11755;-74
2021/03/23 01:17:29;;;;;;;;;42.00;40.00;;;;;4.49;75.98;100334.38;4880355;29;11691;-74
2021/03/23 01:20:27;;;;;;;;;44.50;42.50;;;;;4.48;75.58;100328.09;4879281;29;12489;-74
2021/03/23 01:23:22;;;;;;;;;41.50;39.75;;;;;4.49;75.53;100334.38;4879411;29;11800;-74
2021/03/23 01:26:19;;;;;;;;;42.50;41.50;;;;;4.42;75.49;100321.06;4866899;29;11726;-75
2021/03/23 01:29:15;;;;;;;;;34.50;32.75;;;;;4.32;75.79;100319.31;4879867;29;11762;-74
2021/03/23 01:32:10;;;;;;;;;39.75;36.25;;;;;4.38;76.01;100312.66;4866987;29;11715;-74
2021/03/23 01:34:46;;;;;;;;;48.75;42.25;;;;;4.37;76.49;100311.03;4879898;29;11767;-74
2021/03/23 01:37:41;;;;;;;;;39.25;38.75;;;;;4.29;76.46;100305.41;4881306;29;11721;-74
2021/03/23 01:40:39;;;;;;;;;37.50;37.50;;;;;4.43;76.63;100300.78;4867766;29;11747;-74
2021/03/23 01:43:37;;;;;;;;;44.25;42.75;;;;;4.46;76.47;100294.75;4867084;29;12469;-74
2021/03/23 01:46:40;;;;;;;;;42.67;41.00;;;;;4.28;76.51;100290.09;4862821;29;11826;-74
2021/03/23 01:49:43;;;;;;;;;35.50;35.25;;;;;4.42;76.29;100290.97;4880849;29;12517;-75
2021/03/23 01:52:41;;;;;;;;;42.25;38.75;;;;;4.16;76.57;100280.44;4878544;29;11727;-75
2021/03/23 01:55:37;;;;;;;;;41.00;40.50;;;;;4.19;76.65;100276.28;4878529;29;11778;-75
2021/03/23 01:58:09;;;;;;;;;39.25;39.25;;;;;4.25;77.35;100275.09;4862970;29;11756;-74
2021/03/23 02:01:10;;;;;;;;;46.00;42.25;;;;;4.27;77.30;100270.13;4878337;29;11745;-75
2021/03/23 02:04:06;;;;;;;;;40.00;39.00;;;;;4.33;77.19;100266.19;4878462;29;12505;-75
2021/03/23 02:07:03;;;;;;;;;43.25;39.00;;;;;4.39;77.60;100266.94;4879031;29;11815;-74
2021/03/23 02:09:59;;;;;;;;;39.25;37.75;;;;;4.22;77.94;100261.16;4878526;29;12502;-75
2021/03/23 02:12:56;;;;;;;;;40.00;37.50;;;;;4.18;77.53;100260.97;4871169;29;11736;-75
2021/03/23 02:15:51;;;;;;;;;34.75;34.25;;;;;4.09;78.01;100257.28;4865803;29;11732;-74
2021/03/23 02:18:47;;;;;;;;;28.00;28.00;;;;;4.07;78.36;100259.53;4869107;29;11739;-75
2021/03/23 02:21:43;;;;;;;;;46.00;42.33;;;;;4.11;78.52;100253.13;4877942;29;11751;-74
2021/03/23 02:24:38;;;;;;;;;45.25;40.25;;;;;4.18;78.50;100248.09;4877745;29;11772;-75
2021/03/23 02:27:34;;;;;;;;;44.00;41.00;;;;;4.30;78.08;100244.91;4878259;29;11738;-75
2021/03/23 02:30:38;;;;;;;;;44.25;41.00;;;;;4.19;78.82;100244.25;4878744;29;11741;-74
2021/03/23 02:33:34;;;;;;;;;50.00;46.00;;;;;4.23;78.85;100240.91;4877852;29;11750;-75
2021/03/23 02:36:30;;;;;;;;;59.67;49.33;;;;;4.18;79.14;100231.66;4878231;29;11738;-75
2021/03/23 02:39:28;;;;;;;;;53.25;44.75;;;;;4.23;79.03;100232.72;4865743;29;11725;-74
2021/03/23 02:42:24;;;;;;;;;56.00;48.00;;;;;4.25;79.00;100241.44;4879169;29;11719;-74
2021/03/23 02:45:20;;;;;;;;;58.33;50.33;;;;;4.27;78.56;100233.72;4878580;29;11759;-74
2021/03/23 02:47:49;;;;;;;;;41.67;40.67;;;;;4.23;78.84;100235.44;4879362;29;11718;-74
2021/03/23 02:50:44;;;;;;;;;53.67;48.33;;;;;4.21;78.35;100234.91;4878409;29;11840;-74
2021/03/23 02:53:42;;;;;;;;;56.33;48.67;;;;;4.26;78.39;100245.78;4877871;29;11753;-74
2021/03/23 02:56:37;;;;;;;;;52.33;46.00;;;;;4.28;78.96;100243.56;4882901;29;11813;-74
2021/03/23 02:59:33;;;;;;;;;62.00;50.00;;;;;4.30;79.18;100247.63;4872963;29;11736;-73
2021/03/23 03:02:29;;;;;;;;;64.00;53.33;;;;;4.34;78.96;100253.31;4868817;29;8908;-74
2021/03/23 03:05:25;;;;;;;;;60.67;48.00;;;;;4.32;78.80;100258.28;4882278;29;8871;-74
2021/03/23 03:08:21;;;;;;;;;62.33;51.33;;;;;4.37;78.77;100258.19;4870242;29;11831;-75
2021/03/23 03:11:17;;;;;;;;;62.67;51.33;;;;;4.54;78.56;100258.44;4884011;29;8887;-74
2021/03/23 03:14:13;;;;;;;;;66.00;54.33;;;;;4.36;78.41;100253.81;4881435;29;11741;-75
2021/03/23 03:17:09;;;;;;;;;63.33;52.67;;;;;4.25;79.21;100249.63;4869035;29;8883;-75
2021/03/23 03:20:07;;;;;;;;;55.33;49.33;;;;;4.15;79.34;100248.69;4870286;29;8902;-75
2021/03/23 03:23:03;;;;;;;;;62.00;52.67;;;;;4.43;79.12;100246.03;4882621;29;8872;-74
2021/03/23 03:25:59;;;;;;;;;53.67;48.00;;;;;4.49;78.76;100250.31;4882827;29;8926;-74
2021/03/23 03:28:54;;;;;;;;;56.00;48.33;;;;;4.18;79.25;100250.03;4882570;29;11740;-75
2021/03/23 03:31:50;;;;;;;;;59.00;50.00;;;;;4.29;79.31;100251.47;4881865;29;11833;-73
2021/03/23 03:34:20;;;;;;;;;53.33;48.00;;;;;4.39;78.86;100261.44;4850342;29;8892;-73
2021/03/23 03:37:16;;;;;;;;;48.00;44.00;;;;;4.25;78.79;100255.94;4881012;29;11803;-74
2021/03/23 03:40:18;;;;;;;;;52.67;46.33;;;;;4.20;78.51;100266.94;4882583;29;12440;-72
2021/03/23 03:43:16;;;;;;;;;57.33;48.67;;;;;4.16;78.69;100271.41;4883225;29;11770;-74
2021/03/23 03:46:13;;;;;;;;;56.00;48.33;;;;;4.06;78.56;100271.53;4880769;29;11931;-74
2021/03/23 03:49:09;;;;;;;;;54.67;47.00;;;;;3.94;78.84;100271.22;4884925;29;11774;-74
2021/03/23 03:52:05;;;;;;;;;53.00;45.33;;;;;4.06;78.95;100277.03;4881007;29;8926;-73
2021/03/23 03:55:01;;;;;;;;;63.33;53.33;;;;;4.08;78.85;100275.63;4881779;29;8899;-74
2021/03/23 03:57:57;;;;;;;;;65.00;52.00;;;;;4.07;79.00;100284.97;4869028;29;8880;-74
2021/03/23 04:00:53;;;;;;;;;66.67;54.67;;;;;4.02;78.74;100282.28;4880961;29;9694;-74
2021/03/23 04:03:50;;;;;;;;;66.67;54.00;;;;;4.16;78.66;100285.91;4881101;29;8888;-74
2021/03/23 04:06:45;;;;;;;;;63.33;51.67;;;;;4.00;78.98;100279.03;4882779;29;8868;-74
2021/03/23 04:09:41;;;;;;;;;62.00;51.67;;;;;4.04;79.91;100271.03;4880686;29;8860;-74
2021/03/23 04:12:09;;;;;;;;;64.33;54.00;;;;;4.08;79.06;100278.38;4882616;29;8880;-74
2021/03/23 04:15:07;;;;;;;;;56.00;50.00;;;;;3.95;79.10;100276.38;4881915;29;9733;-73
2021/03/23 04:18:05;;;;;;;;;69.33;57.33;;;;;4.15;79.00;100280.72;4868983;29;8856;-74
2021/03/23 04:21:02;;;;;;;;;69.00;53.67;;;;;4.22;78.89;100278.44;4880083;29;8887;-74
2021/03/23 04:23:57;;;;;;;;;79.67;61.67;;;;;4.12;78.94;100281.31;4880742;29;8907;-74
2021/03/23 04:26:53;;;;;;;;;84.67;68.00;;;;;4.08;79.07;100280.28;4884751;29;8864;-74
2021/03/23 04:29:49;;;;;;;;;83.00;66.67;;;;;4.08;79.03;100289.31;4857101;29;9018;-74
2021/03/23 04:32:45;;;;;;;;;77.00;63.00;;;;;4.12;79.16;100286.78;4881672;29;8879;-74
2021/03/23 04:35:54;;;;;;;;;79.33;63.00;;;;;4.01;79.41;100290.81;4870762;29;8863;-73
2021/03/23 04:38:50;;;;;;;;;73.67;59.67;;;;;4.06;79.63;100291.50;4880596;29;9664;-73
2021/03/23 04:41:17;;;;;;;;;79.33;61.33;;;;;4.05;79.64;100300.03;4882253;29;8900;-73
2021/03/23 04:44:13;;;;;;;;;73.00;60.00;;;;;4.01;79.45;100294.34;4880974;29;8864;-73
2021/03/23 04:47:09;;;;;;;;;82.67;64.00;;;;;4.08;79.50;100299.44;4869940;29;9017;-74
2021/03/23 04:50:05;;;;;;;;;91.67;65.00;;;;;4.00;79.71;100300.13;4867059;29;8894;-74
2021/03/23 04:53:01;;;;;;;;;73.00;60.00;;;;;4.08;79.43;100303.00;4882218;29;8871;-74
2021/03/23 04:55:57;;;;;;;;;83.67;64.33;;;;;4.07;79.17;100300.56;4880636;29;8864;-74
2021/03/23 04:58:53;;;;;;;;;81.67;62.67;;;;;4.02;79.57;100295.97;4879654;29;8881;-74
2021/03/23 05:01:48;;;;;;;;;56.67;50.33;;;;;4.01;80.04;100296.28;4847022;29;8971;-74
2021/03/23 05:04:44;;;;;;;;;66.67;55.00;;;;;4.07;80.02;100304.13;4881988;29;8896;-73
2021/03/23 05:07:39;;;;;;;;;50.67;44.67;;;;;4.25;79.85;100304.38;4881871;29;8902;-74
2021/03/23 05:10:11;;;;;;;;;42.33;39.00;;;;;4.22;79.76;100304.97;4880542;29;11746;-73
2021/03/23 05:13:08;;;;;;;;;44.33;41.00;;;;;4.21;79.16;100308.81;4879991;29;11893;-74
2021/03/23 05:16:03;;;;;;;;;40.00;35.50;;;;;4.14;79.34;100306.44;4881230;29;11774;-73
2021/03/23 05:18:59;;;;;;;;;59.00;50.00;;;;;4.21;79.33;100311.56;4879243;29;11771;-73
2021/03/23 05:21:55;;;;;;;;;71.33;57.00;;;;;4.02;80.71;100309.66;4890151;29;8903;-73
2021/03/23 05:24:50;;;;;;;;;83.67;64.00;;;;;3.91;80.83;100313.66;4866586;29;8898;-74
2021/03/23 05:27:46;;;;;;;;;74.33;61.67;;;;;3.90;80.10;100317.47;4878999;29;8919;-73
2021/03/23 05:30:42;;;;;;;;;79.33;60.33;;;;;3.90;80.57;100318.28;4868064;29;8867;-74
2021/03/23 05:33:38;;;;;;;;;86.00;61.33;;;;;3.75;81.24;100320.44;4879133;29;8868;-73
2021/03/23 05:36:33;;;;;;;;;81.00;65.00;;;;;3.83;81.00;100323.34;4866714;29;8943;-74
2021/03/23 05:39:29;;;;;;;;;81.33;65.00;;;;;3.80;81.68;100336.78;4880489;29;8888;-74
2021/03/23 05:42:35;;;;;;;;;87.67;69.00;;;;;3.83;81.90;100345.22;4882838;29;8990;-74
2021/03/23 05:45:36;;;;;;;;;86.67;69.00;;;;;3.81;81.82;100341.94;4875127;29;8864;-72
2021/03/23 05:48:35;;;;;;;;;80.00;66.00;;;;;3.89;81.13;100335.00;4883896;29;8864;-73
2021/03/23 05:51:46;;;;;;;;;60.67;45.00;;;;;3.66;81.46;100346.81;4877680;29;8880;-72
2021/03/23 05:55:00;;;;;;;;;74.00;60.00;;;;;3.82;81.49;100350.97;4883303;29;8986;-73
2021/03/23 05:57:36;;;;;;;;;72.00;59.67;;;;;3.77;81.26;100351.88;4879489;29;8864;-72
2021/03/23 06:00:36;;;;;;;;;68.00;55.67;;;;;3.77;80.89;100359.25;4866619;29;8868;-73
2021/03/23 06:03:50;;;;;;;;;70.33;58.00;;;;;3.92;81.15;100359.06;4874854;29;8868;-73
2021/03/23 06:06:49;;;;;;;;;82.00;67.00;;;;;3.73;81.31;100358.19;4869790;29;9714;-74
2021/03/23 06:09:53;;;;;;;;;87.67;70.33;;;;;3.49;81.18;100367.25;4890234;29;9610;-74
2021/03/23 06:12:43;;;;;;;;;89.33;72.00;;;;;3.69;81.89;100368.94;4878295;29;8880;-74
2021/03/23 06:16:02;;;;;;;;;92.67;72.67;;;;;3.64;81.34;100368.97;4879336;29;8888;-75
2021/03/23 06:19:04;;;;;;;;;59.67;49.00;;;;;3.56;81.04;100369.63;4865268;29;8898;-74
2021/03/23 06:22:23;;;;;;;;;52.00;44.00;;;;;3.48;81.36;100376.56;4865586;29;8860;-74
2021/03/23 06:25:46;;;;;;;;;24.67;17.00;;;;;3.82;81.26;100386.53;4849021;29;8876;-74
2021/03/23 06:28:25;;;;;;;;;42.67;41.00;;;;;3.67;80.81;100387.53;4876003;29;8934;-73
2021/03/23 06:31:28;;;;;;;;;41.00;37.00;;;;;3.59;80.14;100390.91;4879896;29;11752;-73
2021/03/23 06:34:34;;;;;;;;;54.33;44.67;;;;;3.63;79.96;100395.53;4878330;29;8879;-74
2021/03/23 06:37:38;;;;;;;;;45.67;43.33;;;;;3.68;79.32;100402.00;4878069;29;8892;-73
2021/03/23 06:40:36;;;;;;;;;44.00;42.00;;;;;3.53;78.99;100401.13;4878743;29;9661;-73
2021/03/23 06:43:32;;;;;;;;;54.33;46.00;;;;;3.71;78.68;100412.41;4860864;29;11767;-75
2021/03/23 06:46:47;;;;;;;;;45.00;41.00;;;;;3.89;78.49;100404.22;4874386;29;8867;-74
2021/03/23 06:49:43;;;;;;;;;51.00;44.33;;;;;3.79;78.21;100409.00;4878602;29;8864;-74
2021/03/23 06:52:40;;;;;;;;;54.00;46.67;;;;;3.90;78.28;100405.84;4866566;29;8998;-75
2021/03/23 06:55:37;;;;;;;;;62.67;51.33;;;;;4.00;78.09;100410.38;4890034;29;8899;-76
2021/03/23 06:58:37;;;;;;;;;68.33;54.33;;;;;3.90;77.83;100411.31;4880186;29;8864;-75
2021/03/23 07:01:24;;;;;;;;;56.33;47.00;;;;;3.93;76.90;100415.41;4880003;29;8936;-76
2021/03/23 07:03:55;;;;;;;;;66.33;54.00;;;;;4.15;76.72;100409.38;4893724;29;8957;-75
2021/03/23 07:07:08;;;;;;;;;80.00;59.00;;;;;4.15;77.16;100404.72;4889743;29;8875;-75
2021/03/23 07:09:58;;;;;;;;;68.67;54.33;;;;;4.00;76.17;100404.91;4879133;29;8888;-76
2021/03/23 07:12:54;;;;;;;;;54.33;47.00;;;;;4.30;74.16;100400.94;4879439;29;8880;-76
2021/03/23 07:16:13;;;;;;;;;67.33;53.33;;;;;4.32;75.32;100406.13;4878104;29;11790;-76
2021/03/23 07:18:49;;;;;;;;;45.67;42.33;;;;;4.06;74.03;100422.06;4862338;29;8868;-75
2021/03/23 07:21:57;;;;;;;;;42.00;38.33;;;;;4.29;73.32;100426.66;4878135;29;12510;-75
2021/03/23 07:24:57;;;;;;;;;62.00;51.33;;;;;4.21;71.94;100423.78;4878431;29;12490;-75
2021/03/23 07:28:32;;;;;;;;;57.00;44.67;;;;;4.51;72.19;100419.78;4879730;29;8990;-76
2021/03/23 07:31:32;;;;;;;;;46.50;41.00;;;;;4.63;71.23;100418.22;4847479;29;11768;-77
2021/03/23 07:34:18;;;;;;;;;41.00;36.50;;;;;4.66;71.33;100423.09;4844696;29;11865;-76
2021/03/23 07:37:19;;;;;;;;;37.00;37.00;;;;;4.76;71.90;100427.63;4861105;29;11764;-76
2021/03/23 07:40:33;;;;;;;;;38.00;37.00;;;;;4.69;69.39;100424.47;4859701;29;11731;-74
2021/03/23 07:43:37;;;;;;;;;32.00;31.75;;;;;4.89;69.27;100418.63;4862740;29;11787;-75
2021/03/23 07:46:40;;;;;;;;;23.50;23.50;;;;;5.28;68.84;100412.72;4855728;29;11756;-76
2021/03/23 07:49:45;;;;;;;;;36.25;36.25;;;;;5.65;68.95;100419.19;4881368;29;11795;-75
2021/03/23 07:53:06;;;;;;;;;50.50;40.00;;;;;5.30;65.04;100415.19;4880641;29;11779;-75
2021/03/23 07:56:32;;;;;;;;;21.75;20.75;;;;;5.35;66.59;100419.75;4880664;29;11712;-75
2021/03/23 07:59:21;;;;;;;;;32.75;32.50;;;;;5.33;68.77;100414.59;4869305;29;11744;-74
2021/03/23 08:02:20;;;;;;;;;46.75;40.00;;;;;5.34;64.09;100412.66;4881506;29;11728;-73
2021/03/23 08:05:13;;;;;;;;;56.25;46.00;;;;;5.75;68.05;100404.44;4881947;29;11742;-74
2021/03/23 08:07:53;;;;;;;;;40.00;39.00;;;;;5.98;71.39;100408.94;4882045;29;11751;-74
2021/03/23 08:10:27;;;;;;;;;55.50;46.75;;;;;6.29;66.89;100416.53;4881810;29;11806;-72
2021/03/23 08:13:12;;;;;;;;;52.25;42.75;;;;;6.50;64.14;100414.09;4881725;29;11734;-71
2021/03/23 08:16:06;;;;;;;;;33.50;33.50;;;;;6.46;64.10;100418.59;4881744;29;11765;-72
2021/03/23 08:18:39;;;;;;;;;37.75;33.00;;;;;6.53;63.18;100419.00;4881337;29;11800;-72
2021/03/23 08:21:24;;;;;;;;;38.75;36.75;;;;;6.17;62.37;100422.53;4881426;29;11845;-72
2021/03/23 08:24:04;;;;;;;;;48.75;41.75;;;;;6.48;65.23;100432.84;4882185;29;11736;-75
2021/03/23 08:26:56;;;;;;;;;46.00;41.75;;;;;6.48;63.91;100432.84;4881614;29;11725;-75
2021/03/23 08:29:44;;;;;;;;;41.50;39.25;;;;;6.47;64.32;100443.03;4881375;29;11744;-76
2021/03/23 08:32:41;;;;;;;;;38.00;37.50;;;;;6.83;65.60;100439.44;4881454;29;11767;-75
2021/03/23 08:35:28;;;;;;;;;47.25;41.50;;;;;6.83;63.71;100440.25;4881524;29;11742;-75
2021/03/23 08:38:25;;;;;;;;;45.00;40.00;;;;;7.05;64.63;100446.84;4880991;29;11750;-75
2021/03/23 08:41:23;;;;;;;;;48.50;41.25;;;;;6.45;61.79;100455.44;4865371;29;11752;-76
2021/03/23 08:43:55;;;;;;;;;36.75;28.75;;;;;6.38;61.09;100453.94;4849825;29;11731;-75
2021/03/23 08:46:27;;;;;;;;;35.25;34.50;;;;;6.05;61.04;100452.44;4864171;29;11835;-76
2021/03/23 08:49:02;;;;;;;;;43.25;40.25;;;;;6.00;61.09;100466.28;4864755;29;11814;-75
2021/03/23 08:51:32;;;;;;;;;32.50;30.75;;;;;6.31;62.86;100452.72;4881008;29;12613;-76
2021/03/23 08:54:04;;;;;;;;;36.25;36.25;;;;;6.29;61.06;100447.53;4880617;29;11755;-75
2021/03/23 08:56:48;;;;;;;;;30.50;29.00;;;;;6.24;61.91;100444.09;4881203;29;11721;-76
2021/03/23 08:59:30;;;;;;;;;28.75;27.50;;;;;6.47;62.25;100447.69;4880963;29;11739;-75
2021/03/23 09:02:00;;;;;;;;;47.50;42.50;;;;;6.64;62.40;100445.09;4883519;29;11736;-76
2021/03/23 09:04:33;;;;;;;;;37.75;36.50;;;;;6.67;62.18;100449.97;4881043;29;11704;-76
2021/03/23 09:07:17;;;;;;;;;28.25;26.75;;;;;6.74;60.85;100442.09;4881004;29;11721;-77
2021/03/23 09:09:53;;;;;;;;;11.00;9.75;;;;;6.87;59.80;100441.25;4881094;29;11722;-77
2021/03/23 09:12:48;;;;;;;;;28.00;27.00;;;;;6.59;58.64;100447.97;4880648;29;11702;-75
2021/03/23 09:15:23;;;;;;;;;35.25;33.75;;;;;6.64;58.54;100450.59;4864344;29;11760;-76
2021/03/23 09:18:16;;;;;;;;;23.50;23.00;;;;;6.97;58.61;100442.94;4864734;29;11799;-76
2021/03/23 09:20:46;;;;;;;;;33.75;29.50;;;;;7.36;57.12;100444.13;4880467;29;11780;-77
2021/03/23 09:23:27;;;;;;;;;20.75;20.75;;;;;6.80;58.03;100435.38;4880734;29;11725;-75
2021/03/23 09:26:00;;;;;;;;;25.00;23.75;;;;;7.05;58.29;100414.66;4880818;29;11716;-75
2021/03/23 09:28:32;;;;;;;;;16.00;15.00;;;;;6.92;53.23;100427.38;4864471;29;11738;-76
2021/03/23 09:31:06;;;;;;;;;21.50;21.50;;;;;7.39;57.31;100416.03;4885030;29;11712;-76
2021/03/23 09:33:47;;;;;;;;;20.50;20.50;;;;;6.85;54.53;100426.19;4894175;29;11724;-75
2021/03/23 09:36:22;;;;;;;;;26.00;23.25;;;;;6.56;52.57;100434.84;4876363;29;11888;-76
2021/03/23 09:38:52;;;;;;;;;15.25;14.75;;;;;6.23;52.71;100435.03;4884518;29;12576;-75
2021/03/23 09:41:22;;;;;;;;;22.25;22.25;;;;;6.55;55.47;100433.22;4879788;29;11746;-76
2021/03/23 09:43:52;;;;;;;;;15.75;14.50;;;;;6.46;53.80;100430.41;4879655;29;11728;-76
2021/03/23 09:46:32;;;;;;;;;17.50;17.50;;;;;6.54;56.44;100440.66;4879852;29;11785;-74
2021/03/23 09:49:06;;;;;;;;;18.75;18.25;;;;;6.57;57.57;100442.78;4880065;29;11735;-75
2021/03/23 09:52:08;;;;;;;;;18.00;17.75;;;;;6.38;54.65;100444.88;4879739;29;11731;-76
2021/03/23 09:54:46;;;;;;;;;27.50;27.00;;;;;6.44;56.25;100442.81;4879662;29;11700;-75
2021/03/23 09:57:18;;;;;;;;;28.25;28.25;;;;;6.51;56.39;100449.50;4879912;29;11774;-75
2021/03/23 10:00:28;;;;;;;;;34.00;32.25;;;;;6.09;54.72;100447.97;4879340;29;11904;-76
2021/03/23 10:02:57;;;;;;;;;30.00;29.75;;;;;6.60;58.06;100442.19;4863710;29;11716;-75
2021/03/23 10:05:34;;;;;;;;;19.75;19.75;;;;;6.36;53.54;100442.44;4879562;29;12485;-74
2021/03/23 10:08:32;;;;;;;;;27.50;25.25;;;;;6.41;52.56;100442.31;4879875;29;11725;-74
2021/03/23 10:11:36;;;;;;;;;16.50;14.00;;;;;6.28;53.10;100450.56;4867369;29;11805;-75
2021/03/23 10:14:39;;;;;;;;;26.50;25.00;;;;;6.71;51.36;100448.22;4878775;29;11760;-74
2021/03/23 10:17:09;;;;;;;;;27.75;26.75;;;;;7.26;49.90;100436.97;4879481;29;11742;-75
2021/03/23 10:20:11;;;;;;;;;26.25;26.25;;;;;7.32;50.01;100432.16;4877790;29;11714;-74
2021/03/23 10:23:07;;;;;;;;;7.00;7.00;;;;;6.69;44.22;100434.00;4879599;29;11741;-74
2021/03/23 10:26:05;;;;;;;;;10.00;9.75;;;;;6.81;47.98;100427.94;4875992;29;11753;-75
2021/03/23 10:29:14;;;;;;;;;9.00;8.50;;;;;7.03;44.82;100421.63;4875314;29;11778;-74
2021/03/23 10:31:51;;;;;;;;;12.75;12.75;;;;;7.53;46.35;100414.78;4877829;29;12404;-75
2021/03/23 10:35:11;;;;;;;;;16.25;15.25;;;;;7.83;42.84;100417.81;4874761;29;11726;-76
2021/03/23 10:38:17;;;;;;;;;11.00;11.00;;;;;8.09;41.14;100391.16;4877774;29;11674;-77
2021/03/23 10:41:16;;;;;;;;;19.75;19.00;;;;;8.37;42.71;100388.16;4876538;29;11616;-76
2021/03/23 10:44:20;;;;;;;;;9.00;8.00;;;;;8.32;42.23;100402.03;4874976;29;11664;-74
2021/03/23 10:47:36;;;;;;;;;5.00;5.00;;;;;7.69;42.80;100406.91;4877280;29;11723;-75
2021/03/23 10:50:34;;;;;;;;;5.25;5.25;;;;;7.84;41.45;100405.69;4875655;29;11592;-74
2021/03/23 10:53:30;;;;;;;;;5.75;5.75;;;;;7.88;42.52;100403.09;4875593;29;11790;-75
2021/03/23 10:56:47;;;;;;;;;8.50;8.50;;;;;7.42;42.86;100401.63;4875143;29;11686;-75
2021/03/23 10:59:42;;;;;;;;;5.75;5.75;;;;;7.31;41.92;100405.78;4875128;29;11604;-74
2021/03/23 11:02:38;;;;;;;;;6.50;6.50;;;;;7.53;42.78;100414.78;4877423;29;11582;-75
2021/03/23 11:05:19;;;;;;;;;7.50;6.00;;;;;7.39;44.09;100413.25;4877552;29;11573;-75
2021/03/23 11:08:00;;;;;;;;;10.50;10.50;;;;;7.15;44.62;100417.19;4876428;29;11697;-72
2021/03/23 11:10:58;;;;;;;;;6.50;6.50;;;;;7.45;44.00;100404.56;4868497;29;11711;-75
2021/03/23 11:13:54;;;;;;;;;8.25;8.25;;;;;8.25;44.74;100407.22;4875362;29;12358;-75
2021/03/23 11:16:42;;;;;;;;;11.00;11.00;;;;;8.53;41.03;100403.06;4870590;29;11561;-74
2021/03/23 11:19:40;;;;;;;;;3.00;3.00;;;;;7.71;40.75;100399.16;4873935;29;11625;-73
2021/03/23 11:22:20;;;;;;;;;9.50;9.50;;;;;7.47;41.19;100391.28;4881574;29;11699;-75
2021/03/23 11:25:23;;;;;;;;;9.75;9.75;;;;;7.31;43.01;100389.28;4879684;29;11645;-75
2021/03/23 11:28:21;;;;;;;;;7.50;7.50;;;;;7.44;42.94;100393.88;4879982;29;12375;-76
2021/03/23 11:31:17;;;;;;;;;7.75;7.75;;;;;7.89;44.20;100390.94;4878992;29;11715;-74
2021/03/23 11:34:12;;;;;;;;;9.25;9.25;;;;;7.11;41.48;100379.63;4878297;29;11686;-75
2021/03/23 11:37:08;;;;;;;;;10.00;8.25;;;;;7.23;41.20;100382.59;4870378;29;11631;-75
2021/03/23 11:40:00;;;;;;;;;5.00;5.00;;;;;7.18;41.61;100374.47;4873926;29;11604;-77
2021/03/23 11:42:56;;;;;;;;;8.25;8.25;;;;;7.20;42.00;100372.22;4879142;29;11594;-75
2021/03/23 11:46:01;;;;;;;;;11.25;11.25;;;;;7.28;40.83;100370.63;4880700;29;11638;-75
2021/03/23 11:49:06;;;;;;;;;11.25;11.25;;;;;6.77;43.30;100375.53;4872931;29;11807;-75
2021/03/23 11:52:02;;;;;;;;;9.50;9.50;;;;;6.58;41.55;100375.72;4893940;29;11739;-76
2021/03/23 11:54:58;;;;;;;;;9.50;9.50;;;;;6.76;42.69;100384.91;4879303;29;11662;-75
2021/03/23 11:57:26;;;;;;;;;11.25;11.25;;;;;7.08;41.32;100374.75;4881147;29;11675;-75
2021/03/23 12:00:27;;;;;;;;;11.50;11.50;;;;;6.99;41.52;100384.91;4881210;29;11685;-75
2021/03/23 12:03:22;;;;;;;;;10.00;10.00;;;;;7.12;39.75;100376.53;4879307;29;11626;-75
2021/03/23 12:06:34;;;;;;;;;5.75;5.75;;;;;7.21;39.83;100385.69;4879320;29;12430;-75
2021/03/23 12:09:39;;;;;;;;;8.50;8.50;;;;;7.62;39.66;100376.28;4878782;29;11659;-75
2021/03/23 12:12:53;;;;;;;;;2.50;2.50;;;;;7.13;37.71;100382.84;4880876;29;11653;-74
2021/03/23 12:15:59;;;;;;;;;2.50;2.00;;;;;7.51;39.25;100388.69;4880711;29;11654;-75
2021/03/23 12:19:05;;;;;;;;;7.00;7.00;;;;;6.97;38.89;100390.69;4878434;29;11622;-75
2021/03/23 12:22:01;;;;;;;;;7.00;7.00;;;;;7.10;39.62;100402.75;4879274;29;11603;-74
2021/03/23 12:24:58;;;;;;;;;7.50;7.50;;;;;6.97;38.97;100402.50;4881653;29;12350;-74
2021/03/23 12:27:25;;;;;;;;;8.00;8.00;;;;;6.67;38.89;100398.59;4872710;29;11607;-74
2021/03/23 12:30:23;;;;;;;;;15.25;15.25;;;;;7.06;38.30;100405.31;4881106;29;11619;-74
2021/03/23 12:32:59;;;;;;;;;22.75;22.00;;;;;7.42;40.78;100401.63;4882253;29;11716;-74
2021/03/23 12:35:56;;;;;;;;;10.50;9.50;;;;;7.36;36.34;100398.22;4879766;29;11756;-74
2021/03/23 12:38:53;;;;;;;;;13.50;13.50;;;;;7.37;36.03;100397.09;4881315;29;12390;-75
2021/03/23 12:41:31;;;;;;;;;10.25;10.25;;;;;7.29;36.84;100392.34;4877942;29;11738;-75
2021/03/23 12:44:27;;;;;;;;;10.00;10.00;;;;;7.30;36.78;100395.91;4880032;29;11614;-75
2021/03/23 12:47:23;;;;;;;;;15.50;14.50;;;;;7.42;37.36;100396.13;4878017;29;11706;-75
2021/03/23 12:50:18;;;;;;;;;16.75;16.75;;;;;8.00;37.59;100384.81;4878668;29;11735;-74
2021/03/23 12:53:19;;;;;;;;;10.25;10.25;;;;;7.56;35.23;100394.06;4877062;29;12525;-74
2021/03/23 12:56:15;;;;;;;;;10.25;10.25;;;;;7.72;35.78;100386.19;4859839;29;11602;-74
2021/03/23 12:59:20;;;;;;;;;10.50;8.75;;;;;8.36;34.39;100381.03;4877535;29;11616;-75
2021/03/23 13:02:22;;;;;;;;;11.75;11.75;;;;;9.07;35.39;100383.38;4877891;29;11734;-75
2021/03/23 13:05:18;;;;;;;;;6.25;6.25;;;;;9.68;33.02;100379.28;4873658;29;11596;-75
2021/03/23 13:08:25;;;;;;;;;13.00;13.00;;;;;10.66;32.84;100379.94;4878024;29;11291;-75
2021/03/23 13:11:23;;;;;;;;;4.00;4.00;;;;;9.79;31.92;100385.22;4872718;29;11396;-75
2021/03/23 13:14:22;;;;;;;;;7.50;7.50;;;;;9.14;32.39;100391.97;4873513;29;10856;-73
2021/03/23 13:17:21;;;;;;;;;17.25;16.50;;;;;9.66;31.48;100400.91;4878278;29;11064;-72
2021/03/23 13:20:19;;;;;;;;;12.00;9.50;;;;;9.85;32.84;100405.19;4877262;29;11329;-75
2021/03/23 13:23:22;;;;;;;;;12.75;12.75;;;;;9.34;33.80;100407.81;4878367;29;11023;-74